Time;durP1;ratioP1;P1;durP2;ratioP2;P2;SDS_P1;SDS_P2;PMS_P1;PMS_P2;Temp;Humidity;BMP_temperature;BMP_pressure;BME280_temperature;BME280_humidity;BME280_pressure;Samples;Min_cycle;Max_cycle;Signal;HPM_P1;HPM_P2
2023/03/27 00:00:41;;;;;;;7.23;3.73;;;;;;;8.40;nan;98964.16;4988418;28;20030;-68
2023/03/27 00:03:08;;;;;;;6.78;3.42;;;;;;;8.45;nan;98961.59;4987671;28;20034;-68
2023/03/27 00:05:34;;;;;;;7.28;3.65;;;;;;;8.46;nan;98961.34;4982921;28;20395;-68
2023/03/27 00:08:00;;;;;;;6.82;3.78;;;;;;;8.49;nan;98958.22;4985933;28;20142;-67
2023/03/27 00:10:26;;;;;;;7.82;3.78;;;;;;;8.50;nan;98956.41;4986491;28;20057;-69
2023/03/27 00:12:56;;;;;;;8.40;3.80;;;;;;;8.50;nan;98953.81;4985897;28;20503;-69
2023/03/27 00:15:21;;;;;;;7.05;3.30;;;;;;;8.46;nan;98937.75;4989299;28;20037;-69
2023/03/27 00:17:49;;;;;;;5.75;3.17;;;;;;;8.52;nan;98938.56;4987014;28;20038;-69
2023/03/27 00:20:17;;;;;;;6.40;3.03;;;;;;;8.54;nan;98940.97;4981139;28;20058;-68
2023/03/27 00:22:42;;;;;;;6.53;2.90;;;;;;;8.53;nan;98921.81;4984603;28;20108;-68
2023/03/27 00:25:10;;;;;;;7.97;2.92;;;;;;;8.58;nan;98928.94;4990052;28;20086;-68
2023/03/27 00:27:36;;;;;;;4.38;2.50;;;;;;;8.58;nan;98910.59;4986268;28;20053;-69
2023/03/27 00:30:03;;;;;;;5.00;2.70;;;;;;;8.58;nan;98906.13;4990224;28;20164;-69
2023/03/27 00:32:30;;;;;;;7.28;2.92;;;;;;;8.56;nan;98895.06;4986418;28;20037;-69
2023/03/27 00:34:55;;;;;;;6.70;2.67;;;;;;;8.65;nan;98903.31;4987812;28;20119;-69
2023/03/27 00:37:21;;;;;;;5.20;2.80;;;;;;;8.64;nan;98905.13;4987994;28;20160;-69
2023/03/27 00:39:49;;;;;;;6.60;2.88;;;;;;;8.66;nan;98899.63;4978623;28;20026;-69
2023/03/27 00:42:21;;;;;;;4.80;2.53;;;;;;;8.70;nan;98891.00;4985047;28;20029;-69
2023/03/27 00:44:50;;;;;;;4.30;2.33;;;;;;;8.65;nan;98884.94;4987928;28;20037;-68
2023/03/27 00:47:19;;;;;;;8.70;3.00;;;;;;;8.75;nan;98886.84;4985725;28;20031;-67
2023/03/27 00:49:48;;;;;;;8.77;3.08;;;;;;;8.81;nan;98888.47;4987607;28;20121;-69
2023/03/27 00:52:15;;;;;;;6.55;2.38;;;;;;;8.76;nan;98875.28;4989204;28;20116;-68
2023/03/27 00:54:43;;;;;;;6.45;2.75;;;;;;;8.83;nan;98878.50;4985971;28;20084;-68
2023/03/27 00:57:13;;;;;;;5.20;2.50;;;;;;;8.87;nan;98874.34;4988876;28;20030;-68
2023/03/27 00:59:40;;;;;;;4.30;2.30;;;;;;;8.89;nan;98872.25;4983911;28;20025;-68
2023/03/27 01:02:07;;;;;;;4.90;2.70;;;;;;;8.90;nan;98869.38;4985000;28;20977;-68
2023/03/27 01:04:35;;;;;;;4.53;2.42;;;;;;;8.93;nan;98871.50;4986900;28;20698;-69
2023/03/27 01:07:04;;;;;;;6.93;2.53;;;;;;;8.94;nan;98856.56;4987385;28;20034;-69
2023/03/27 01:09:29;;;;;;;4.00;2.17;;;;;;;9.05;nan;98867.91;4989002;28;20042;-68
2023/03/27 01:12:45;;;;;;;6.43;2.10;;;;;;;8.88;nan;98823.41;4986677;28;20046;-69
2023/03/27 01:15:17;;;;;;;4.90;2.40;;;;;;;9.11;nan;98849.31;4984141;28;20065;-69
2023/03/27 01:18:19;;;;;;;4.53;2.25;;;;;;;9.19;nan;98834.13;4984349;28;20076;-68
2023/03/27 01:21:10;;;;;;;4.82;2.33;;;;;;;9.19;nan;98821.00;4977466;28;20034;-69
2023/03/27 01:23:46;;;;;;;3.92;2.10;;;;;;;9.22;nan;98815.22;4985657;28;20033;-69
2023/03/27 01:26:45;;;;;;;7.38;2.33;;;;;;;9.29;nan;98815.78;4988193;28;20485;-68
2023/03/27 01:29:13;;;;;;;;;;;;;;;9.31;nan;98797.94;4986130;28;20033;-69
2023/03/27 01:31:59;;;;;;;2.63;1.92;;;;;;;9.37;nan;98799.56;4986769;28;19972;-69
2023/03/27 01:34:30;;;;;;;3.25;1.85;;;;;;;9.46;nan;98795.38;4987098;28;20030;-69
2023/03/27 01:37:18;;;;;;;3.55;1.38;;;;;;;9.70;nan;98784.44;4985077;28;20067;-69
2023/03/27 01:40:08;;;;;;;4.60;1.65;;;;;;;9.91;nan;98786.06;4985429;28;20448;-69
2023/03/27 01:42:42;;;;;;;2.28;1.25;;;;;;;10.08;nan;98774.50;4987721;28;20034;-68
2023/03/27 01:45:12;;;;;;;2.92;1.48;;;;;;;10.11;nan;98759.00;4984310;28;20388;-68
2023/03/27 01:47:58;;;;;;;3.88;1.33;;;;;;;10.34;nan;98770.91;4988655;28;20042;-68
2023/03/27 01:50:34;;;;;;;4.05;1.45;;;;;;;;;;4987799;28;20117;-68
2023/03/27 01:53:05;;;;;;;4.13;1.48;;;;;;;10.52;nan;98753.78;4986899;28;20042;-69
2023/03/27 01:55:37;;;;;;;4.05;1.70;;;;;;;10.55;nan;98744.56;4996538;28;20057;-69
2023/03/27 01:58:32;;;;;;;2.08;1.25;;;;;;;10.69;nan;98756.13;4991563;28;20030;-69
2023/03/27 02:01:00;;;;;;;2.40;1.40;;;;;;;10.77;nan;98760.06;4986144;28;20079;-68
2023/03/27 02:03:28;;;;;;;1.42;1.15;;;;;;;;;;4990617;28;20026;-69
2023/03/27 02:06:07;;;;;;;2.88;1.50;;;;;;;10.89;nan;98746.59;4987857;28;20022;-69
2023/03/27 02:08:45;;;;;;;;;;;;;;;10.98;nan;98758.16;4989205;28;20034;-68
2023/03/27 02:11:11;;;;;;;2.67;1.23;;;;;;;10.75;nan;98704.25;4991889;28;19939;-69
2023/03/27 02:13:42;;;;;;;3.05;1.15;;;;;;;11.03;nan;98748.41;4988387;28;20046;-68
2023/03/27 02:16:13;;;;;;;3.88;1.27;;;;;;;11.04;nan;98744.72;4979810;28;20092;-69
2023/03/27 02:18:46;;;;;;;4.07;1.33;;;;;;;11.01;nan;98736.56;4977463;28;20068;-69
2023/03/27 02:21:13;;;;;;;2.25;1.27;;;;;;;11.05;nan;98742.88;4990450;28;20053;-69
2023/03/27 02:23:39;;;;;;;3.28;1.45;;;;;;;11.04;nan;98738.69;4992625;28;20026;-68
2023/03/27 02:26:05;;;;;;;3.10;1.40;;;;;;;10.96;nan;98723.41;4991051;28;20164;-69
2023/03/27 02:28:48;;;;;;;3.80;1.25;;;;;;;11.02;nan;98733.66;4990604;28;20964;-69
2023/03/27 02:31:53;;;;;;;2.85;1.30;;;;;;;11.05;nan;98725.22;4988473;28;20042;-69
2023/03/27 02:34:25;;;;;;;2.15;1.10;;;;;;;11.05;nan;98716.53;4988351;28;20388;-69
2023/03/27 02:37:02;;;;;;;2.35;1.20;;;;;;;11.05;nan;98719.94;4990377;28;20026;-69
2023/03/27 02:40:05;;;;;;;1.45;1.02;;;;;;;11.05;nan;98706.00;4990478;28;20050;-69
2023/03/27 02:43:02;;;;;;;2.50;1.30;;;;;;;11.05;nan;98706.00;4984927;28;20045;-69
2023/03/27 02:45:39;;;;;;;3.38;1.63;;;;;;;11.02;nan;98702.06;4932111;29;20043;-69
2023/03/27 02:48:16;;;;;;;2.17;1.10;;;;;;;11.03;nan;98702.84;4929483;29;20138;-69
2023/03/27 02:50:48;;;;;;;2.47;1.10;;;;;;;10.98;nan;98694.97;4917769;29;20513;-69
2023/03/27 02:53:19;;;;;;;4.82;1.33;;;;;;;10.95;nan;98690.25;4928871;29;20046;-69
2023/03/27 02:55:51;;;;;;;2.70;1.17;;;;;;;10.88;nan;98671.31;4929463;29;20098;-69
2023/03/27 02:58:23;;;;;;;2.88;1.42;;;;;;;10.76;nan;98664.50;4932298;29;20483;-69
2023/03/27 03:00:50;;;;;;;1.52;1.23;;;;;;;10.74;nan;98665.81;4929636;29;20039;-69
2023/03/27 03:03:42;;;;;;;2.15;1.27;;;;;;;10.66;nan;98659.25;4932991;29;20081;-69
2023/03/27 03:06:09;;;;;;;2.47;1.35;;;;;;;10.65;nan;98652.41;4902720;29;20048;-69
2023/03/27 03:08:39;;;;;;;4.60;1.40;;;;;;;10.45;nan;98618.25;4927638;29;20676;-69
2023/03/27 03:11:09;;;;;;;2.65;1.25;;;;;;;10.70;nan;98654.22;4931594;29;20466;-69
2023/03/27 03:13:34;;;;;;;3.85;1.50;;;;;;;10.67;nan;98644.25;4928878;29;20055;-69
2023/03/27 03:16:00;;;;;;;2.10;1.48;;;;;;;10.60;nan;98628.72;4930049;29;20047;-69
2023/03/27 03:18:26;;;;;;;1.95;1.27;;;;;;;10.72;nan;98650.28;4911904;29;20585;-69
2023/03/27 03:20:52;;;;;;;1.77;1.15;;;;;;;10.65;nan;98631.34;4929070;29;20253;-69
2023/03/27 03:23:21;;;;;;;2.35;1.40;;;;;;;10.68;nan;98635.28;4982896;28;20146;-68
2023/03/27 03:25:51;;;;;;;2.85;1.95;;;;;;;10.76;nan;98640.78;4994490;28;21317;-69
2023/03/27 03:28:17;;;;;;;2.47;1.30;;;;;;;10.82;nan;98636.28;4988754;28;20045;-69
2023/03/27 03:30:45;;;;;;;4.05;1.70;;;;;;;11.01;nan;98634.66;4983889;28;20063;-69
2023/03/27 03:33:13;;;;;;;3.30;1.65;;;;;;;11.09;nan;98628.03;4986782;28;20038;-69
2023/03/27 03:35:38;;;;;;;3.67;1.73;;;;;;;11.02;nan;98593.28;4983402;28;20026;-69
2023/03/27 03:38:05;;;;;;;5.20;1.80;;;;;;;11.26;nan;98623.19;4987884;28;20049;-69
2023/03/27 03:40:31;;;;;;;2.67;1.30;;;;;;;11.39;nan;98628.91;4989790;28;20866;-69
2023/03/27 03:42:57;;;;;;;6.40;1.67;;;;;;;11.42;nan;98621.25;4990165;28;20089;-69
2023/03/27 03:45:22;;;;;;;2.83;1.35;;;;;;;11.50;nan;98623.28;4982115;28;20049;-69
2023/03/27 03:47:48;;;;;;;1.95;1.52;;;;;;;11.36;nan;98593.34;4984524;28;20124;-68
2023/03/27 03:50:14;;;;;;;3.70;1.70;;;;;;;11.44;nan;98597.22;4981864;28;20053;-68
2023/03/27 03:52:40;;;;;;;4.00;1.77;;;;;;;11.55;nan;98608.50;4984965;28;20062;-68
2023/03/27 03:55:07;;;;;;;3.85;1.95;;;;;;;11.48;nan;98598.25;4984996;28;20030;-68
2023/03/27 03:57:32;;;;;;;3.58;1.70;;;;;;;11.49;nan;98599.81;4987011;28;20023;-68
2023/03/27 03:59:58;;;;;;;4.93;1.48;;;;;;;11.48;nan;98601.69;4982946;28;20036;-66
2023/03/27 04:02:29;;;;;;;3.28;1.70;;;;;;;11.41;nan;98584.59;4985768;28;20053;-66
2023/03/27 04:04:58;;;;;;;4.22;1.60;;;;;;;11.44;nan;98590.09;4980705;28;20435;-67
2023/03/27 04:07:30;;;;;;;3.15;1.58;;;;;;;11.48;nan;98582.44;4989352;28;20065;-66
2023/03/27 04:09:57;;;;;;;3.78;1.67;;;;;;;11.57;nan;98582.66;4989856;28;20481;-67
2023/03/27 04:12:22;;;;;;;2.55;1.40;;;;;;;11.55;nan;98561.06;4988204;28;20544;-66
2023/03/27 04:14:47;;;;;;;4.32;1.60;;;;;;;11.57;nan;98549.16;4986623;28;20034;-66
2023/03/27 04:17:13;;;;;;;4.03;1.55;;;;;;;11.58;nan;98537.56;4990361;28;20030;-67
2023/03/27 04:19:40;;;;;;;3.13;1.80;;;;;;;11.40;nan;98490.81;4988076;28;20414;-67
2023/03/27 04:22:06;;;;;;;5.90;1.80;;;;;;;11.52;nan;98520.22;4988437;28;20488;-66
2023/03/27 04:24:31;;;;;;;3.53;1.50;;;;;;;11.56;nan;98521.22;4990292;28;20022;-66
2023/03/27 04:26:57;;;;;;;7.13;1.52;;;;;;;11.60;nan;98532.78;4988932;28;20730;-67
2023/03/27 04:29:24;;;;;;;3.80;1.85;;;;;;;11.54;nan;98510.19;4986566;28;20022;-65
2023/03/27 04:31:50;;;;;;;3.85;1.70;;;;;;;11.63;nan;98526.94;4988542;28;20049;-66
2023/03/27 04:34:19;;;;;;;2.30;1.50;;;;;;;11.59;nan;98520.69;4992015;28;20027;-67
2023/03/27 04:36:45;;;;;;;3.87;2.13;;;;;;;11.69;nan;98538.25;4992008;28;20026;-66
2023/03/27 04:39:11;;;;;;;3.13;1.40;;;;;;;11.70;nan;98539.81;4989261;28;20529;-66
2023/03/27 04:41:37;;;;;;;2.72;1.60;;;;;;;11.69;nan;98539.03;4988796;28;20152;-67
2023/03/27 04:44:04;;;;;;;3.88;1.40;;;;;;;11.69;nan;98530.34;4985408;28;20101;-65
2023/03/27 04:46:29;;;;;;;3.42;1.42;;;;;;;11.75;nan;98545.03;4980081;28;20030;-66
2023/03/27 04:48:55;;;;;;;4.85;1.67;;;;;;;11.76;nan;98537.94;4979435;28;20031;-66
2023/03/27 04:51:20;;;;;;;3.20;1.77;;;;;;;11.86;nan;98545.75;4981958;28;20518;-66
2023/03/27 04:53:46;;;;;;;5.95;1.90;;;;;;;11.84;nan;98542.59;4984097;28;20121;-66
2023/03/27 04:56:11;;;;;;;4.30;2.05;;;;;;;11.83;nan;98541.03;4986527;28;20034;-65
2023/03/27 04:58:39;;;;;;;2.92;1.52;;;;;;;11.62;nan;98506.16;4989181;28;20078;-66
2023/03/27 05:01:05;;;;;;;2.83;1.58;;;;;;;11.83;nan;98543.69;4982810;28;20026;-65
2023/03/27 05:03:31;;;;;;;3.13;1.40;;;;;;;11.76;nan;98533.44;4987283;28;20789;-66
2023/03/27 05:05:57;;;;;;;2.97;1.55;;;;;;;11.74;nan;98532.16;4987193;28;20026;-66
2023/03/27 05:08:22;;;;;;;2.75;1.67;;;;;;;11.71;nan;98544.03;4984905;28;20033;-66
2023/03/27 05:10:48;;;;;;;4.38;1.90;;;;;;;11.65;nan;98535.38;4986627;28;20362;-66
2023/03/27 05:13:13;;;;;;;3.05;1.50;;;;;;;11.54;nan;98518.09;4987542;28;20061;-65
2023/03/27 05:15:39;;;;;;;4.10;1.83;;;;;;;11.57;nan;98543.13;4987046;28;20108;-66
2023/03/27 05:18:05;;;;;;;4.82;1.42;;;;;;;11.58;nan;98563.91;4989659;28;20111;-66
2023/03/27 05:20:31;;;;;;;3.47;1.73;;;;;;;11.60;nan;98569.69;4988163;28;20463;-66
2023/03/27 05:22:56;;;;;;;4.20;1.73;;;;;;;11.54;nan;98583.19;4986503;28;20117;-67
2023/03/27 05:25:23;;;;;;;3.50;1.90;;;;;;;11.55;nan;98597.97;4987067;28;20803;-66
2023/03/27 05:27:50;;;;;;;5.18;2.03;;;;;;;11.49;nan;98603.28;4990026;28;20117;-66
2023/03/27 05:30:21;;;;;;;4.20;1.85;;;;;;;11.41;nan;98618.88;4986383;28;20031;-65
2023/03/27 05:32:48;;;;;;;6.53;1.70;;;;;;;11.27;nan;98637.91;4990411;28;20172;-65
2023/03/27 05:35:18;;;;;;;4.30;1.80;;;;;;;11.17;nan;98648.50;4985758;28;20422;-66
2023/03/27 05:37:49;;;;;;;1.90;1.40;;;;;;;11.05;nan;98640.94;4979857;28;20404;-64
2023/03/27 05:40:16;;;;;;;8.00;1.88;;;;;;;11.01;nan;98662.81;4986398;28;20030;-66
2023/03/27 05:42:45;;;;;;;2.80;1.75;;;;;;;10.87;nan;98702.13;4985131;28;20058;-65
2023/03/27 05:45:12;;;;;;;2.78;1.85;;;;;;;10.76;nan;98732.94;4985925;28;20034;-67
2023/03/27 05:47:45;;;;;;;6.60;2.30;;;;;;;10.60;nan;98739.28;4983755;28;20057;-66
2023/03/27 05:50:10;;;;;;;6.43;2.95;;;;;;;10.45;nan;98757.72;4983783;28;20084;-67
2023/03/27 05:52:36;;;;;;;7.15;3.30;;;;;;;10.21;nan;98748.47;4980372;28;20026;-67
2023/03/27 05:55:02;;;;;;;6.57;3.15;;;;;;;10.06;nan;98752.97;4986685;28;20037;-67
2023/03/27 05:57:27;;;;;;;6.07;2.90;;;;;;;9.92;nan;98755.31;4987747;28;20062;-67
2023/03/27 05:59:53;;;;;;;5.30;3.83;;;;;;;9.77;nan;98748.19;4986370;28;20030;-67
2023/03/27 06:02:18;;;;;;;7.22;3.20;;;;;;;9.73;nan;98757.63;4986622;28;20440;-66
2023/03/27 06:04:44;;;;;;;5.05;2.85;;;;;;;9.65;nan;98744.97;4992872;28;20129;-67
2023/03/27 06:07:11;;;;;;;4.95;2.85;;;;;;;9.60;nan;98735.28;4984877;28;20026;-66
2023/03/27 06:09:37;;;;;;;7.00;2.78;;;;;;;9.44;nan;98712.63;4986904;28;20057;-66
2023/03/27 06:12:04;;;;;;;6.35;3.00;;;;;;;9.48;nan;98719.72;4984280;28;20074;-66
2023/03/27 06:14:29;;;;;;;4.13;2.72;;;;;;;9.47;nan;98719.97;4984504;28;20042;-66
2023/03/27 06:16:55;;;;;;;5.78;2.50;;;;;;;9.39;nan;98708.13;4984644;28;20030;-65
2023/03/27 06:19:23;;;;;;;3.28;2.22;;;;;;;9.43;nan;98703.16;4986475;28;20049;-66
2023/03/27 06:21:49;;;;;;;4.97;2.72;;;;;;;9.42;nan;98694.47;4987637;28;20601;-66
2023/03/27 06:24:15;;;;;;;4.28;2.35;;;;;;;9.37;nan;98674.25;4989872;28;20018;-66
2023/03/27 06:26:42;;;;;;;4.03;2.60;;;;;;;9.39;nan;98668.75;4981863;28;20050;-66
2023/03/27 06:29:07;;;;;;;4.53;3.10;;;;;;;9.23;nan;98635.59;4989051;28;20166;-66
2023/03/27 06:31:33;;;;;;;3.47;2.63;;;;;;;9.33;nan;98628.50;4986955;28;20038;-66
2023/03/27 06:33:58;;;;;;;4.82;2.70;;;;;;;9.34;nan;98600.44;4984393;28;20031;-66
2023/03/27 06:36:23;;;;;;;6.45;2.97;;;;;;;9.38;nan;98543.69;4984949;28;20030;-66
2023/03/27 06:38:49;;;;;;;5.22;3.53;;;;;;;9.28;nan;98530.56;4984725;28;20062;-65
2023/03/27 06:41:15;;;;;;;5.47;3.15;;;;;;;9.40;nan;98543.44;4987379;28;20023;-67
2023/03/27 06:43:40;;;;;;;6.00;3.25;;;;;;;9.37;nan;98540.28;4989947;28;20479;-67
2023/03/27 06:46:05;;;;;;;4.93;3.08;;;;;;;9.41;nan;98539.72;4990489;28;20089;-64
2023/03/27 06:48:31;;;;;;;5.30;3.10;;;;;;;9.43;nan;98553.41;4993134;28;20026;-71
2023/03/27 06:50:56;;;;;;;6.70;3.35;;;;;;;9.39;nan;98542.66;4989939;28;20514;-66
2023/03/27 06:53:22;;;;;;;6.45;4.05;;;;;;;9.45;nan;98562.59;4990268;28;20026;-68
2023/03/27 06:55:49;;;;;;;5.03;3.63;;;;;;;9.39;nan;98552.38;4989709;28;20105;-67
2023/03/27 06:58:17;;;;;;;8.10;4.07;;;;;;;9.44;nan;98561.03;4988077;28;20034;-64
2023/03/27 07:00:44;;;;;;;5.50;4.15;;;;;;;9.46;nan;98579.94;4988708;28;20431;-65
2023/03/27 07:03:10;;;;;;;5.18;3.85;;;;;;;9.43;nan;98590.97;4989231;28;20125;-64
2023/03/27 07:05:39;;;;;;;6.18;3.58;;;;;;;9.46;nan;98593.09;4990274;28;20022;-65
2023/03/27 07:08:13;;;;;;;15.38;9.43;;;;;;;9.49;nan;98600.44;4990349;28;20034;-65
2023/03/27 07:10:38;;;;;;;14.10;8.95;;;;;;;9.47;nan;98597.28;4989726;28;20045;-65
2023/03/27 07:13:05;;;;;;;7.15;5.25;;;;;;;9.53;nan;98605.97;4989820;28;20050;-70
2023/03/27 07:15:30;;;;;;;7.75;4.22;;;;;;;9.55;nan;98595.97;4989880;28;20039;-65
2023/03/27 07:17:56;;;;;;;7.20;3.97;;;;;;;9.59;nan;98602.28;4991758;28;20083;-64
2023/03/27 07:20:23;;;;;;;6.38;3.60;;;;;;;9.54;nan;98591.78;4991020;28;20459;-65
2023/03/27 07:22:49;;;;;;;5.63;4.00;;;;;;;9.63;nan;98605.97;4989041;28;20033;-65
2023/03/27 07:25:15;;;;;;;4.88;3.05;;;;;;;9.54;nan;98576.78;4991067;28;20033;-65
2023/03/27 07:27:41;;;;;;;6.15;3.30;;;;;;;9.50;nan;98573.09;4992498;28;20103;-65
2023/03/27 07:30:10;;;;;;;9.00;3.38;;;;;;;9.65;nan;98597.81;4988620;28;20084;-65
2023/03/27 07:32:37;;;;;;;3.70;3.10;;;;;;;9.66;nan;98609.91;4988171;28;20038;-65
2023/03/27 07:35:04;;;;;;;5.97;3.20;;;;;;;9.69;nan;98612.00;4991203;28;20030;-65
2023/03/27 07:37:29;;;;;;;6.68;3.05;;;;;;;9.70;nan;98605.72;4991965;28;20042;-65
2023/03/27 07:39:55;;;;;;;11.00;3.60;;;;;;;9.66;nan;98594.16;4990366;28;20021;-65
2023/03/27 07:42:20;;;;;;;6.50;3.38;;;;;;;9.75;nan;98609.13;4990406;28;20049;-69
2023/03/27 07:44:46;;;;;;;6.55;3.38;;;;;;;9.73;nan;98613.06;4990349;28;20018;-65
2023/03/27 07:47:11;;;;;;;6.32;3.22;;;;;;;9.76;nan;98618.56;4989383;28;20034;-65
2023/03/27 07:49:37;;;;;;;3.80;2.38;;;;;;;9.82;nan;98629.09;4986718;28;20073;-65
2023/03/27 07:52:03;;;;;;;3.67;2.30;;;;;;;9.84;nan;98630.44;4988772;28;20045;-65
2023/03/27 07:54:30;;;;;;;3.85;2.30;;;;;;;9.80;nan;98611.75;4988799;28;20026;-64
2023/03/27 07:56:55;;;;;;;2.72;2.20;;;;;;;9.90;nan;98618.84;4986295;28;20511;-65
2023/03/27 07:59:21;;;;;;;3.38;2.50;;;;;;;9.90;nan;98616.22;4990075;28;20049;-68
2023/03/27 08:01:49;;;;;;;3.13;2.40;;;;;;;9.95;nan;98624.09;4989863;28;20022;-65
2023/03/27 08:04:18;;;;;;;5.47;2.30;;;;;;;9.91;nan;98603.84;4990876;28;20041;-70
2023/03/27 08:06:43;;;;;;;4.70;2.85;;;;;;;10.03;nan;98617.50;4986948;28;20049;-69
2023/03/27 08:09:09;;;;;;;3.88;2.28;;;;;;;10.06;nan;98619.63;4986761;28;20064;-70
2023/03/27 08:11:37;;;;;;;3.33;2.30;;;;;;;10.11;nan;98624.09;4984990;28;20081;-69
2023/03/27 08:14:03;;;;;;;3.00;2.25;;;;;;;10.12;nan;98615.13;4987727;28;20065;-69
2023/03/27 08:16:28;;;;;;;3.72;2.20;;;;;;;10.08;nan;98606.19;4984859;28;20026;-69
2023/03/27 08:18:54;;;;;;;2.72;2.10;;;;;;;10.15;nan;98611.97;4989878;28;20026;-70
2023/03/27 08:21:21;;;;;;;3.38;2.13;;;;;;;10.15;nan;98615.41;4989137;28;20369;-70
2023/03/27 08:23:46;;;;;;;4.75;2.60;;;;;;;10.10;nan;98602.25;4984879;28;20106;-69
2023/03/27 08:26:13;;;;;;;6.00;2.35;;;;;;;10.15;nan;98607.53;4982533;28;20038;-69
2023/03/27 08:28:39;;;;;;;3.17;2.55;;;;;;;;;;4988868;28;20543;-70
2023/03/27 08:31:10;;;;;;;3.38;2.28;;;;;;;;;;4988451;28;20117;-69
2023/03/27 08:33:35;;;;;;;4.65;2.45;;;;;;;10.16;nan;98598.56;4988360;28;20515;-69
2023/03/27 08:36:01;;;;;;;3.85;2.45;;;;;;;10.22;nan;98609.84;4984397;28;20026;-70
2023/03/27 08:38:31;;;;;;;3.80;2.33;;;;;;;10.29;nan;98614.88;4979680;28;20034;-70
2023/03/27 08:40:58;;;;;;;3.67;1.98;;;;;;;10.30;nan;98613.84;4969899;28;20061;-70
2023/03/27 08:43:29;;;;;;;6.07;2.20;;;;;;;10.41;nan;98618.00;4985271;28;20041;-69
2023/03/27 08:45:57;;;;;;;3.30;1.77;;;;;;;10.46;nan;98617.97;4979300;28;20213;-70
2023/03/27 08:48:45;;;;;;;2.55;1.90;;;;;;;10.53;nan;98622.97;4985867;28;20113;-66
2023/03/27 08:51:18;;;;;;;4.88;1.35;;;;;;;10.53;nan;98618.50;4908991;29;20068;-66
2023/03/27 08:53:50;;;;;;;2.45;1.50;;;;;;;10.67;nan;98623.19;4899810;29;20076;-66
2023/03/27 08:56:19;;;;;;;2.28;1.60;;;;;;;10.74;nan;98629.75;4908858;29;20048;-66
2023/03/27 08:58:45;;;;;;;2.00;1.58;;;;;;;10.82;nan;98631.03;4902393;29;20035;-65
2023/03/27 09:01:20;;;;;;;4.10;1.48;;;;;;;10.88;nan;98643.13;4914499;29;20116;-66
2023/03/27 09:04:30;;;;;;;1.98;1.13;;;;;;;10.95;nan;98637.56;4910574;29;20406;-66
2023/03/27 09:07:07;;;;;;;2.63;1.10;;;;;;;11.03;nan;98634.34;4898311;29;20603;-66
2023/03/27 09:09:48;;;;;;;2.00;1.27;;;;;;;11.07;nan;98632.75;4908901;29;20420;-66
2023/03/27 09:12:23;;;;;;;3.17;1.00;;;;;;;11.14;nan;98632.47;4896364;29;20191;-66
2023/03/27 09:15:03;;;;;;;2.53;1.40;;;;;;;11.16;nan;98623.25;4908797;29;20040;-66
2023/03/27 09:17:36;;;;;;;1.67;1.13;;;;;;;11.31;nan;98637.38;4909715;29;20051;-66
2023/03/27 09:20:20;;;;;;;2.53;1.30;;;;;;;11.31;nan;98626.84;4893892;29;20035;-66
2023/03/27 09:22:52;;;;;;;3.90;1.30;;;;;;;11.37;nan;98617.84;4911909;29;20040;-66
2023/03/27 09:25:22;;;;;;;1.30;1.00;;;;;;;11.46;nan;98630.16;4894779;29;20064;-66
2023/03/27 09:27:51;;;;;;;1.88;1.10;;;;;;;11.52;nan;98615.13;4935054;28;20045;-66
2023/03/27 09:30:31;;;;;;;2.60;1.10;;;;;;;11.66;nan;98623.97;4991453;28;20122;-66
2023/03/27 09:33:02;;;;;;;1.40;1.08;;;;;;;11.72;nan;98624.72;4988314;28;20042;-66
2023/03/27 09:35:28;;;;;;;3.08;1.15;;;;;;;11.74;nan;98614.69;4988390;28;20116;-70
2023/03/27 09:38:32;;;;;;;2.33;1.13;;;;;;;11.98;nan;98646.41;4977309;28;20076;-70
2023/03/27 09:41:02;;;;;;;1.85;1.30;;;;;;;12.02;nan;98634.25;4970532;28;20085;-65
2023/03/27 09:43:38;;;;;;;2.17;1.20;;;;;;;11.97;nan;98623.75;4977652;28;20143;-69
2023/03/27 09:46:05;;;;;;;2.40;1.20;;;;;;;12.01;nan;98626.63;4978787;28;20437;-70
2023/03/27 09:48:36;;;;;;;2.33;1.65;;;;;;;12.10;nan;98643.41;4986652;28;20033;-70
2023/03/27 09:51:01;;;;;;;2.30;1.20;;;;;;;12.12;nan;98630.75;4984423;28;20042;-70
2023/03/27 09:53:27;;;;;;;1.90;1.10;;;;;;;11.99;nan;98615.53;4985446;28;20034;-70
2023/03/27 09:55:55;;;;;;;1.67;1.30;;;;;;;12.08;nan;98630.50;4988461;28;20030;-70
2023/03/27 09:58:24;;;;;;;1.98;1.10;;;;;;;12.08;nan;98641.06;4988582;28;20066;-70
2023/03/27 10:01:12;;;;;;;2.30;1.35;;;;;;;12.06;nan;98645.03;4981830;28;20037;-70
2023/03/27 10:03:52;;;;;;;2.30;1.40;;;;;;;12.06;nan;98637.13;4979915;28;20509;-70
2023/03/27 10:06:30;;;;;;;3.88;2.10;;;;;;;12.01;nan;98635.31;4987411;28;20034;-70
2023/03/27 10:09:01;;;;;;;1.95;1.67;;;;;;;12.06;nan;98645.81;4987831;28;20105;-70
2023/03/27 10:11:31;;;;;;;2.70;1.50;;;;;;;12.04;nan;98645.31;4986539;28;20433;-70
2023/03/27 10:14:00;;;;;;;4.07;1.80;;;;;;;12.04;nan;98645.31;4986286;28;20042;-70
2023/03/27 10:16:27;;;;;;;3.78;1.70;;;;;;;12.00;nan;98646.16;4978560;28;20026;-70
2023/03/27 10:18:56;;;;;;;1.95;1.42;;;;;;;12.04;nan;98653.25;4990610;28;20038;-70
2023/03/27 10:21:28;;;;;;;2.72;1.65;;;;;;;12.05;nan;98636.34;4989914;28;20030;-66
2023/03/27 10:24:05;;;;;;;2.85;2.10;;;;;;;12.20;nan;98653.88;4980945;28;20374;-66
2023/03/27 10:26:35;;;;;;;3.00;2.13;;;;;;;12.21;nan;98647.56;4990802;28;20422;-65
2023/03/27 10:29:20;;;;;;;5.50;2.20;;;;;;;12.23;nan;98650.66;4985299;28;20038;-66
2023/03/27 10:31:51;;;;;;;2.17;1.95;;;;;;;12.17;nan;98648.38;4987774;28;20097;-66
2023/03/27 10:34:36;;;;;;;2.53;2.00;;;;;;;12.14;nan;98649.72;4988312;28;20074;-65
2023/03/27 10:37:16;;;;;;;2.80;1.85;;;;;;;12.07;nan;98633.44;4990079;28;20040;-66
2023/03/27 10:39:42;;;;;;;2.13;1.80;;;;;;;12.03;nan;98617.34;4990211;28;20030;-66
2023/03/27 10:42:08;;;;;;;3.95;2.25;;;;;;;12.16;nan;98630.97;4992142;28;20026;-66
2023/03/27 10:44:37;;;;;;;5.55;2.58;;;;;;;12.22;nan;98627.22;4991140;28;20489;-66
2023/03/27 10:47:04;;;;;;;4.63;2.40;;;;;;;12.23;nan;98642.75;4989392;28;20046;-66
2023/03/27 10:49:42;;;;;;;5.55;3.35;;;;;;;12.24;nan;98644.34;4988571;28;20027;-66
2023/03/27 10:52:18;;;;;;;4.47;3.55;;;;;;;12.13;nan;98629.66;4987199;28;20496;-65
2023/03/27 10:54:50;;;;;;;5.95;4.28;;;;;;;12.12;nan;98641.28;4977939;28;20117;-66
2023/03/27 10:57:29;;;;;;;5.00;4.10;;;;;;;12.02;nan;98631.63;4984573;28;20034;-66
2023/03/27 11:00:12;;;;;;;;;;;;;;;11.98;nan;98649.06;4983607;28;20038;-65
2023/03/27 11:03:08;;;;;;;6.57;4.80;;;;;;;11.89;nan;98642.81;4984071;28;19920;-66
2023/03/27 11:05:42;;;;;;;5.47;4.28;;;;;;;11.87;nan;98644.91;4989180;28;20025;-65
2023/03/27 11:08:28;;;;;;;6.10;4.80;;;;;;;11.88;nan;98647.28;4988134;28;20034;-66
2023/03/27 11:10:59;;;;;;;8.82;4.63;;;;;;;11.79;nan;98627.03;4987830;28;20026;-65
2023/03/27 11:13:37;;;;;;;8.27;5.40;;;;;;;11.86;nan;98636.19;4987143;28;20050;-65
2023/03/27 11:16:30;;;;;;;8.20;5.47;;;;;;;11.91;nan;98638.03;4986338;28;20041;-65
2023/03/27 11:19:35;;;;;;;6.45;5.00;;;;;;;11.97;nan;98631.66;4987751;28;20050;-65
2023/03/27 11:22:06;;;;;;;10.07;6.70;;;;;;;12.00;nan;98625.06;4978597;28;20049;-65
2023/03/27 11:24:54;;;;;;;8.15;5.55;;;;;;;12.13;nan;98635.72;4987052;28;20026;-65
2023/03/27 11:27:27;;;;;;;7.38;5.55;;;;;;;12.21;nan;98633.53;4985337;28;20404;-64
2023/03/27 11:30:13;;;;;;;6.75;5.68;;;;;;;12.23;nan;98640.13;4988383;28;20023;-65
2023/03/27 11:32:55;;;;;;;8.77;5.65;;;;;;;12.26;nan;98647.50;4988017;28;20173;-65
2023/03/27 11:35:23;;;;;;;8.20;5.28;;;;;;;12.27;nan;98638.50;4989856;28;20034;-65
2023/03/27 11:37:58;;;;;;;6.40;4.97;;;;;;;12.27;nan;98640.38;5002099;28;20030;-65
2023/03/27 11:40:44;;;;;;;4.22;3.30;;;;;;;12.27;nan;98648.28;4987439;28;20618;-65
2023/03/27 11:43:12;;;;;;;6.63;5.03;;;;;;;12.21;nan;98639.63;4988555;28;20038;-65
2023/03/27 11:45:43;;;;;;;6.60;4.30;;;;;;;12.22;nan;98650.97;4997385;28;20436;-65
2023/03/27 11:48:44;;;;;;;5.75;4.22;;;;;;;12.23;nan;98632.19;4985962;28;20120;-65
2023/03/27 11:51:15;;;;;;;4.22;3.50;;;;;;;12.22;nan;98625.38;4909956;29;20042;-64
2023/03/27 11:54:19;;;;;;;6.28;3.88;;;;;;;12.28;nan;98628.72;4927125;29;20573;-70
2023/03/27 11:56:56;;;;;;;4.78;3.45;;;;;;;12.30;nan;98629.25;4906471;29;20823;-69
2023/03/27 11:59:34;;;;;;;5.25;3.45;;;;;;;12.32;nan;98642.94;4926866;29;20146;-69
2023/03/27 12:02:18;;;;;;;3.83;2.90;;;;;;;12.31;nan;98642.16;4910300;29;20035;-69
2023/03/27 12:04:56;;;;;;;2.70;2.40;;;;;;;12.30;nan;98642.44;4926852;29;20031;-69
2023/03/27 12:07:49;;;;;;;4.28;2.67;;;;;;;12.31;nan;98644.03;4927807;29;20098;-71
2023/03/27 12:10:35;;;;;;;2.95;2.42;;;;;;;12.33;nan;98650.59;4927760;29;20605;-65
2023/03/27 12:13:18;;;;;;;1.88;1.73;;;;;;;12.43;nan;98659.47;4927041;29;20059;-70
2023/03/27 12:16:05;;;;;;;2.63;1.50;;;;;;;12.50;nan;98668.63;4927612;29;20042;-70